sensor_id;sensor_type;location;lat;lon;timestamp;P1;durP1;ratioP1;P2;durP2;ratioP2
15218;SDS011;15623;53.986;11.676;2023-08-06T00:00:28;3.92;;;3.63;;
15218;SDS011;15623;53.986;11.676;2023-08-06T00:11:53;6.80;;;3.80;;
15218;SDS011;15623;53.986;11.676;2023-08-06T00:14:26;6.00;;;4.25;;
15218;SDS011;15623;53.986;11.676;2023-08-06T00:17:23;5.10;;;3.78;;
15218;SDS011;15623;53.986;11.676;2023-08-06T01:18:46;8.40;;;3.30;;
15218;SDS011;15623;53.986;11.676;2023-08-06T01:21:16;6.68;;;3.47;;
15218;SDS011;15623;53.986;11.676;2023-08-06T01:23:44;3.70;;;3.30;;
15218;SDS011;15623;53.986;11.676;2023-08-06T01:26:24;5.03;;;3.38;;
15218;SDS011;15623;53.986;11.676;2023-08-06T01:28:56;9.43;;;3.70;;
15218;SDS011;15623;53.986;11.676;2023-08-06T01:31:26;5.50;;;3.88;;
15218;SDS011;15623;53.986;11.676;2023-08-06T01:33:54;6.35;;;3.55;;
15218;SDS011;15623;53.986;11.676;2023-08-06T01:36:27;4.90;;;3.65;;
15218;SDS011;15623;53.986;11.676;2023-08-06T01:38:55;5.22;;;3.42;;
15218;SDS011;15623;53.986;11.676;2023-08-06T01:41:40;4.65;;;3.90;;
15218;SDS011;15623;53.986;11.676;2023-08-06T01:44:08;4.10;;;3.70;;
15218;SDS011;15623;53.986;11.676;2023-08-06T01:46:36;8.52;;;3.95;;
15218;SDS011;15623;53.986;11.676;2023-08-06T01:49:17;4.88;;;3.78;;
15218;SDS011;15623;53.986;11.676;2023-08-06T03:31:21;7.97;;;4.43;;
15218;SDS011;15623;53.986;11.676;2023-08-06T03:40:08;5.87;;;4.20;;
15218;SDS011;15623;53.986;11.676;2023-08-06T03:42:35;6.07;;;4.70;;
15218;SDS011;15623;53.986;11.676;2023-08-06T03:45:03;4.50;;;4.10;;
15218;SDS011;15623;53.986;11.676;2023-08-06T03:47:32;6.10;;;4.50;;
15218;SDS011;15623;53.986;11.676;2023-08-06T03:50:00;5.20;;;4.40;;
15218;SDS011;15623;53.986;11.676;2023-08-06T03:52:27;5.00;;;4.50;;
15218;SDS011;15623;53.986;11.676;2023-08-06T03:54:56;7.68;;;4.43;;
15218;SDS011;15623;53.986;11.676;2023-08-06T03:57:24;4.63;;;4.18;;
15218;SDS011;15623;53.986;11.676;2023-08-06T03:59:52;4.70;;;4.10;;
15218;SDS011;15623;53.986;11.676;2023-08-06T04:02:19;4.60;;;3.97;;
15218;SDS011;15623;53.986;11.676;2023-08-06T04:04:48;9.83;;;4.13;;
15218;SDS011;15623;53.986;11.676;2023-08-06T04:07:18;6.00;;;4.10;;
15218;SDS011;15623;53.986;11.676;2023-08-06T04:09:56;5.72;;;4.38;;
15218;SDS011;15623;53.986;11.676;2023-08-06T04:12:24;4.50;;;3.67;;
15218;SDS011;15623;53.986;11.676;2023-08-06T04:14:51;5.50;;;3.93;;
15218;SDS011;15623;53.986;11.676;2023-08-06T04:17:19;7.50;;;4.20;;
15218;SDS011;15623;53.986;11.676;2023-08-06T04:19:48;5.38;;;3.85;;
15218;SDS011;15623;53.986;11.676;2023-08-06T04:22:22;4.13;;;3.83;;
15218;SDS011;15623;53.986;11.676;2023-08-06T04:24:50;5.00;;;3.60;;
15218;SDS011;15623;53.986;11.676;2023-08-06T04:27:18;6.40;;;3.88;;
15218;SDS011;15623;53.986;11.676;2023-08-06T04:29:49;5.05;;;3.90;;
15218;SDS011;15623;53.986;11.676;2023-08-06T04:34:55;3.72;;;3.38;;
15218;SDS011;15623;53.986;11.676;2023-08-06T04:37:24;6.90;;;3.70;;
15218;SDS011;15623;53.986;11.676;2023-08-06T04:39:59;3.92;;;3.60;;
15218;SDS011;15623;53.986;11.676;2023-08-06T04:42:27;4.57;;;3.30;;
15218;SDS011;15623;53.986;11.676;2023-08-06T04:44:55;5.45;;;3.53;;
15218;SDS011;15623;53.986;11.676;2023-08-06T04:53:10;5.35;;;3.58;;
15218;SDS011;15623;53.986;11.676;2023-08-06T04:55:38;4.68;;;3.78;;
15218;SDS011;15623;53.986;11.676;2023-08-06T04:58:06;3.97;;;3.63;;
15218;SDS011;15623;53.986;11.676;2023-08-06T05:00:33;4.88;;;3.63;;
15218;SDS011;15623;53.986;11.676;2023-08-06T05:03:00;5.22;;;4.00;;
15218;SDS011;15623;53.986;11.676;2023-08-06T05:05:28;3.45;;;3.20;;
15218;SDS011;15623;53.986;11.676;2023-08-06T05:07:56;5.28;;;3.38;;
15218;SDS011;15623;53.986;11.676;2023-08-06T05:10:26;4.40;;;3.67;;
15218;SDS011;15623;53.986;11.676;2023-08-06T05:12:54;3.95;;;3.53;;
15218;SDS011;15623;53.986;11.676;2023-08-06T05:15:22;4.30;;;3.50;;
15218;SDS011;15623;53.986;11.676;2023-08-06T05:17:52;6.22;;;3.55;;
15218;SDS011;15623;53.986;11.676;2023-08-06T05:20:20;3.90;;;3.33;;
15218;SDS011;15623;53.986;11.676;2023-08-06T05:22:47;7.25;;;3.60;;
15218;SDS011;15623;53.986;11.676;2023-08-06T05:25:21;5.32;;;3.55;;
15218;SDS011;15623;53.986;11.676;2023-08-06T05:28:06;3.40;;;3.10;;
15218;SDS011;15623;53.986;11.676;2023-08-06T05:30:38;6.07;;;3.42;;
15218;SDS011;15623;53.986;11.676;2023-08-06T05:33:05;3.78;;;3.40;;
15218;SDS011;15623;53.986;11.676;2023-08-06T05:49:55;4.35;;;3.65;;
15218;SDS011;15623;53.986;11.676;2023-08-06T05:52:25;5.45;;;3.83;;
15218;SDS011;15623;53.986;11.676;2023-08-06T05:54:53;4.68;;;3.20;;
15218;SDS011;15623;53.986;11.676;2023-08-06T06:00:29;3.65;;;3.30;;
15218;SDS011;15623;53.986;11.676;2023-08-06T06:03:15;3.67;;;3.38;;
15218;SDS011;15623;53.986;11.676;2023-08-06T06:06:23;6.13;;;3.20;;
15218;SDS011;15623;53.986;11.676;2023-08-06T06:08:57;4.20;;;3.17;;
15218;SDS011;15623;53.986;11.676;2023-08-06T06:11:26;5.13;;;3.05;;
15218;SDS011;15623;53.986;11.676;2023-08-06T06:14:32;4.78;;;2.63;;
15218;SDS011;15623;53.986;11.676;2023-08-06T06:17:14;3.92;;;2.95;;
15218;SDS011;15623;53.986;11.676;2023-08-06T06:46:26;4.47;;;2.50;;
15218;SDS011;15623;53.986;11.676;2023-08-06T06:48:53;4.38;;;2.40;;
15218;SDS011;15623;53.986;11.676;2023-08-06T06:51:21;3.67;;;2.30;;
15218;SDS011;15623;53.986;11.676;2023-08-06T06:53:48;3.38;;;2.45;;
15218;SDS011;15623;53.986;11.676;2023-08-06T06:56:18;3.55;;;2.70;;
15218;SDS011;15623;53.986;11.676;2023-08-06T06:58:45;2.50;;;2.40;;
15218;SDS011;15623;53.986;11.676;2023-08-06T07:01:14;4.18;;;2.72;;
15218;SDS011;15623;53.986;11.676;2023-08-06T07:03:52;3.10;;;2.42;;
15218;SDS011;15623;53.986;11.676;2023-08-06T07:06:20;5.90;;;2.60;;
15218;SDS011;15623;53.986;11.676;2023-08-06T07:08:48;3.17;;;2.85;;
15218;SDS011;15623;53.986;11.676;2023-08-06T07:11:15;3.63;;;2.50;;
15218;SDS011;15623;53.986;11.676;2023-08-06T07:13:43;3.05;;;2.75;;
15218;SDS011;15623;53.986;11.676;2023-08-06T07:16:11;2.80;;;2.50;;
15218;SDS011;15623;53.986;11.676;2023-08-06T07:18:39;3.97;;;2.60;;
15218;SDS011;15623;53.986;11.676;2023-08-06T07:21:08;3.63;;;2.60;;
15218;SDS011;15623;53.986;11.676;2023-08-06T07:23:35;2.72;;;2.45;;
15218;SDS011;15623;53.986;11.676;2023-08-06T07:26:03;3.47;;;2.50;;
15218;SDS011;15623;53.986;11.676;2023-08-06T07:28:30;3.72;;;2.78;;
15218;SDS011;15623;53.986;11.676;2023-08-06T07:30:58;4.00;;;2.40;;
15218;SDS011;15623;53.986;11.676;2023-08-06T07:33:25;5.05;;;2.55;;
15218;SDS011;15623;53.986;11.676;2023-08-06T07:35:53;3.58;;;2.70;;
15218;SDS011;15623;53.986;11.676;2023-08-06T07:38:23;3.80;;;3.00;;
15218;SDS011;15623;53.986;11.676;2023-08-06T07:40:51;3.28;;;2.50;;
15218;SDS011;15623;53.986;11.676;2023-08-06T07:43:19;3.33;;;2.60;;
15218;SDS011;15623;53.986;11.676;2023-08-06T07:45:47;3.42;;;2.50;;
15218;SDS011;15623;53.986;11.676;2023-08-06T07:48:15;4.22;;;2.58;;
15218;SDS011;15623;53.986;11.676;2023-08-06T07:50:42;4.95;;;2.55;;
15218;SDS011;15623;53.986;11.676;2023-08-06T07:53:18;2.97;;;2.30;;
15218;SDS011;15623;53.986;11.676;2023-08-06T07:55:49;2.47;;;2.28;;
15218;SDS011;15623;53.986;11.676;2023-08-06T07:58:16;3.70;;;2.45;;
15218;SDS011;15623;53.986;11.676;2023-08-06T08:00:44;3.38;;;2.58;;
15218;SDS011;15623;53.986;11.676;2023-08-06T08:03:11;3.20;;;2.50;;
15218;SDS011;15623;53.986;11.676;2023-08-06T08:05:39;3.80;;;2.58;;
15218;SDS011;15623;53.986;11.676;2023-08-06T08:08:07;3.92;;;2.45;;
15218;SDS011;15623;53.986;11.676;2023-08-06T08:10:34;6.40;;;2.83;;
15218;SDS011;15623;53.986;11.676;2023-08-06T08:13:04;7.43;;;2.95;;
15218;SDS011;15623;53.986;11.676;2023-08-06T08:15:32;4.65;;;2.53;;
15218;SDS011;15623;53.986;11.676;2023-08-06T08:17:59;3.00;;;2.40;;
15218;SDS011;15623;53.986;11.676;2023-08-06T08:20:47;3.03;;;2.65;;
15218;SDS011;15623;53.986;11.676;2023-08-06T08:23:30;5.25;;;2.72;;
15218;SDS011;15623;53.986;11.676;2023-08-06T08:26:16;2.50;;;2.30;;
15218;SDS011;15623;53.986;11.676;2023-08-06T08:31:58;3.65;;;2.42;;
15218;SDS011;15623;53.986;11.676;2023-08-06T08:34:26;2.88;;;2.45;;
15218;SDS011;15623;53.986;11.676;2023-08-06T08:37:08;3.03;;;2.35;;
15218;SDS011;15623;53.986;11.676;2023-08-06T08:39:50;2.75;;;2.45;;
15218;SDS011;15623;53.986;11.676;2023-08-06T08:42:31;5.90;;;2.45;;
15218;SDS011;15623;53.986;11.676;2023-08-06T08:45:01;9.88;;;3.55;;
15218;SDS011;15623;53.986;11.676;2023-08-06T08:50:32;2.58;;;2.30;;
15218;SDS011;15623;53.986;11.676;2023-08-06T08:53:00;2.88;;;2.40;;
15218;SDS011;15623;53.986;11.676;2023-08-06T08:55:28;3.67;;;2.70;;
15218;SDS011;15623;53.986;11.676;2023-08-06T08:57:57;2.97;;;2.30;;
15218;SDS011;15623;53.986;11.676;2023-08-06T09:00:40;3.03;;;2.20;;
15218;SDS011;15623;53.986;11.676;2023-08-06T09:03:09;4.05;;;2.63;;
15218;SDS011;15623;53.986;11.676;2023-08-06T09:05:43;2.70;;;2.40;;
15218;SDS011;15623;53.986;11.676;2023-08-06T09:08:15;2.85;;;2.20;;
15218;SDS011;15623;53.986;11.676;2023-08-06T09:10:47;3.47;;;2.55;;
15218;SDS011;15623;53.986;11.676;2023-08-06T09:13:17;5.30;;;2.10;;
15218;SDS011;15623;53.986;11.676;2023-08-06T09:15:45;3.78;;;2.22;;
15218;SDS011;15623;53.986;11.676;2023-08-06T09:18:15;5.25;;;2.50;;
15218;SDS011;15623;53.986;11.676;2023-08-06T09:20:56;3.20;;;2.22;;
15218;SDS011;15623;53.986;11.676;2023-08-06T09:23:27;3.70;;;2.50;;
15218;SDS011;15623;53.986;11.676;2023-08-06T09:25:58;4.75;;;2.15;;
15218;SDS011;15623;53.986;11.676;2023-08-06T09:28:36;3.33;;;2.53;;
15218;SDS011;15623;53.986;11.676;2023-08-06T09:31:08;2.50;;;2.08;;
15218;SDS011;15623;53.986;11.676;2023-08-06T09:33:36;2.47;;;2.05;;
15218;SDS011;15623;53.986;11.676;2023-08-06T09:51:31;3.88;;;2.42;;
15218;SDS011;15623;53.986;11.676;2023-08-06T09:54:00;2.42;;;1.88;;
15218;SDS011;15623;53.986;11.676;2023-08-06T09:56:28;2.10;;;1.90;;
15218;SDS011;15623;53.986;11.676;2023-08-06T09:59:10;2.05;;;1.88;;
15218;SDS011;15623;53.986;11.676;2023-08-06T10:01:54;2.10;;;1.90;;
15218;SDS011;15623;53.986;11.676;2023-08-06T10:04:47;4.78;;;2.00;;
15218;SDS011;15623;53.986;11.676;2023-08-06T10:07:43;4.22;;;1.98;;
15218;SDS011;15623;53.986;11.676;2023-08-06T10:10:26;3.72;;;2.00;;
15218;SDS011;15623;53.986;11.676;2023-08-06T10:13:09;5.97;;;2.13;;
15218;SDS011;15623;53.986;11.676;2023-08-06T10:15:37;5.03;;;2.00;;
15218;SDS011;15623;53.986;11.676;2023-08-06T10:18:25;4.70;;;2.00;;
15218;SDS011;15623;53.986;11.676;2023-08-06T11:17:36;2.22;;;1.65;;
15218;SDS011;15623;53.986;11.676;2023-08-06T11:20:04;2.03;;;1.80;;
15218;SDS011;15623;53.986;11.676;2023-08-06T11:25:12;4.57;;;1.90;;
15218;SDS011;15623;53.986;11.676;2023-08-06T11:27:43;2.00;;;1.80;;
15218;SDS011;15623;53.986;11.676;2023-08-06T12:30:27;2.20;;;1.60;;
15218;SDS011;15623;53.986;11.676;2023-08-06T12:32:58;1.48;;;1.38;;
15218;SDS011;15623;53.986;11.676;2023-08-06T12:43:46;2.78;;;1.40;;
15218;SDS011;15623;53.986;11.676;2023-08-06T13:17:32;2.30;;;1.80;;
15218;SDS011;15623;53.986;11.676;2023-08-06T13:20:14;2.95;;;1.83;;
15218;SDS011;15623;53.986;11.676;2023-08-06T13:23:09;3.83;;;1.80;;
15218;SDS011;15623;53.986;11.676;2023-08-06T13:25:54;4.07;;;2.03;;
15218;SDS011;15623;53.986;11.676;2023-08-06T13:33:34;2.03;;;1.80;;
15218;SDS011;15623;53.986;11.676;2023-08-06T13:38:40;3.00;;;2.45;;
15218;SDS011;15623;53.986;11.676;2023-08-06T13:41:16;3.10;;;2.72;;
15218;SDS011;15623;53.986;11.676;2023-08-06T13:46:40;3.75;;;2.85;;
15218;SDS011;15623;53.986;11.676;2023-08-06T13:49:21;4.70;;;2.70;;
15218;SDS011;15623;53.986;11.676;2023-08-06T13:52:12;3.20;;;2.90;;
15218;SDS011;15623;53.986;11.676;2023-08-06T14:00:33;3.63;;;2.72;;
15218;SDS011;15623;53.986;11.676;2023-08-06T14:03:16;4.72;;;2.55;;
15218;SDS011;15623;53.986;11.676;2023-08-06T14:20:09;3.40;;;2.53;;
15218;SDS011;15623;53.986;11.676;2023-08-06T14:22:38;2.97;;;2.60;;
15218;SDS011;15623;53.986;11.676;2023-08-06T14:25:07;3.83;;;2.95;;
15218;SDS011;15623;53.986;11.676;2023-08-06T14:27:36;3.63;;;2.60;;
15218;SDS011;15623;53.986;11.676;2023-08-06T14:30:04;2.65;;;2.45;;
15218;SDS011;15623;53.986;11.676;2023-08-06T14:32:36;2.40;;;2.20;;
15218;SDS011;15623;53.986;11.676;2023-08-06T14:35:08;4.03;;;2.70;;
15218;SDS011;15623;53.986;11.676;2023-08-06T14:37:35;3.20;;;2.70;;
15218;SDS011;15623;53.986;11.676;2023-08-06T14:40:04;3.78;;;2.40;;
15218;SDS011;15623;53.986;11.676;2023-08-06T14:42:32;3.05;;;2.20;;
15218;SDS011;15623;53.986;11.676;2023-08-06T14:44:59;2.88;;;2.30;;
15218;SDS011;15623;53.986;11.676;2023-08-06T14:47:27;2.40;;;2.28;;
15218;SDS011;15623;53.986;11.676;2023-08-06T14:49:54;2.70;;;2.35;;
15218;SDS011;15623;53.986;11.676;2023-08-06T14:52:23;3.80;;;2.80;;
15218;SDS011;15623;53.986;11.676;2023-08-06T14:54:51;4.25;;;2.25;;
15218;SDS011;15623;53.986;11.676;2023-08-06T14:57:21;2.58;;;2.38;;
15218;SDS011;15623;53.986;11.676;2023-08-06T14:59:52;2.38;;;2.17;;
15218;SDS011;15623;53.986;11.676;2023-08-06T15:02:33;2.58;;;2.38;;
15218;SDS011;15623;53.986;11.676;2023-08-06T15:05:01;3.30;;;2.30;;
15218;SDS011;15623;53.986;11.676;2023-08-06T15:07:30;2.70;;;2.10;;
15218;SDS011;15623;53.986;11.676;2023-08-06T15:10:00;3.17;;;2.50;;
15218;SDS011;15623;53.986;11.676;2023-08-06T15:12:28;4.82;;;2.58;;
15218;SDS011;15623;53.986;11.676;2023-08-06T15:14:55;3.17;;;2.65;;
15218;SDS011;15623;53.986;11.676;2023-08-06T15:17:23;5.40;;;2.78;;
15218;SDS011;15623;53.986;11.676;2023-08-06T15:19:51;3.58;;;2.80;;
15218;SDS011;15623;53.986;11.676;2023-08-06T15:22:20;2.88;;;2.40;;
15218;SDS011;15623;53.986;11.676;2023-08-06T15:24:51;2.60;;;2.40;;
15218;SDS011;15623;53.986;11.676;2023-08-06T15:27:21;3.63;;;2.67;;
15218;SDS011;15623;53.986;11.676;2023-08-06T15:29:48;3.97;;;2.60;;
15218;SDS011;15623;53.986;11.676;2023-08-06T15:32:16;3.50;;;2.70;;
15218;SDS011;15623;53.986;11.676;2023-08-06T15:34:44;3.20;;;2.60;;
15218;SDS011;15623;53.986;11.676;2023-08-06T15:37:13;3.53;;;2.22;;
15218;SDS011;15623;53.986;11.676;2023-08-06T15:39:41;2.50;;;2.30;;
15218;SDS011;15623;53.986;11.676;2023-08-06T15:42:12;2.63;;;1.92;;
15218;SDS011;15623;53.986;11.676;2023-08-06T15:44:40;2.33;;;1.90;;
15218;SDS011;15623;53.986;11.676;2023-08-06T15:47:08;2.85;;;2.15;;
15218;SDS011;15623;53.986;11.676;2023-08-06T15:49:36;2.30;;;2.10;;
15218;SDS011;15623;53.986;11.676;2023-08-06T15:52:04;3.42;;;2.10;;
15218;SDS011;15623;53.986;11.676;2023-08-06T15:54:33;2.33;;;2.05;;
15218;SDS011;15623;53.986;11.676;2023-08-06T15:57:05;3.15;;;1.73;;
15218;SDS011;15623;53.986;11.676;2023-08-06T15:59:34;3.33;;;1.92;;
15218;SDS011;15623;53.986;11.676;2023-08-06T16:02:02;4.40;;;1.90;;
15218;SDS011;15623;53.986;11.676;2023-08-06T16:04:31;3.80;;;1.90;;
15218;SDS011;15623;53.986;11.676;2023-08-06T16:07:00;1.88;;;1.70;;
15218;SDS011;15623;53.986;11.676;2023-08-06T16:09:28;2.55;;;1.88;;
15218;SDS011;15623;53.986;11.676;2023-08-06T16:11:57;1.70;;;1.60;;
15218;SDS011;15623;53.986;11.676;2023-08-06T16:14:27;1.88;;;1.73;;
15218;SDS011;15623;53.986;11.676;2023-08-06T16:16:55;2.45;;;1.70;;
15218;SDS011;15623;53.986;11.676;2023-08-06T16:19:23;2.65;;;1.60;;
15218;SDS011;15623;53.986;11.676;2023-08-06T16:21:51;2.55;;;1.80;;
15218;SDS011;15623;53.986;11.676;2023-08-06T16:27:06;2.72;;;1.70;;
15218;SDS011;15623;53.986;11.676;2023-08-06T16:30:06;1.75;;;1.65;;
15218;SDS011;15623;53.986;11.676;2023-08-06T16:32:37;1.80;;;1.67;;
15218;SDS011;15623;53.986;11.676;2023-08-06T16:35:06;2.30;;;1.80;;
15218;SDS011;15623;53.986;11.676;2023-08-06T16:37:36;3.17;;;1.77;;
15218;SDS011;15623;53.986;11.676;2023-08-06T16:40:09;3.63;;;1.63;;
15218;SDS011;15623;53.986;11.676;2023-08-06T16:45:57;2.08;;;1.83;;
15218;SDS011;15623;53.986;11.676;2023-08-06T16:48:26;2.65;;;1.80;;
15218;SDS011;15623;53.986;11.676;2023-08-06T16:51:01;3.97;;;2.40;;
15218;SDS011;15623;53.986;11.676;2023-08-06T16:53:45;2.30;;;1.80;;
15218;SDS011;15623;53.986;11.676;2023-08-06T16:56:25;3.97;;;2.10;;
15218;SDS011;15623;53.986;11.676;2023-08-06T16:58:52;2.95;;;1.60;;
15218;SDS011;15623;53.986;11.676;2023-08-06T17:01:22;3.22;;;2.20;;
15218;SDS011;15623;53.986;11.676;2023-08-06T17:06:35;2.05;;;1.80;;
15218;SDS011;15623;53.986;11.676;2023-08-06T17:09:06;2.72;;;1.90;;
15218;SDS011;15623;53.986;11.676;2023-08-06T17:11:35;2.85;;;1.95;;
15218;SDS011;15623;53.986;11.676;2023-08-06T17:14:03;2.72;;;2.00;;
15218;SDS011;15623;53.986;11.676;2023-08-06T17:16:33;2.10;;;1.90;;
15218;SDS011;15623;53.986;11.676;2023-08-06T17:19:06;3.97;;;2.10;;
15218;SDS011;15623;53.986;11.676;2023-08-06T17:21:40;2.10;;;2.00;;
15218;SDS011;15623;53.986;11.676;2023-08-06T17:24:10;3.78;;;1.90;;
15218;SDS011;15623;53.986;11.676;2023-08-06T17:26:41;2.08;;;1.88;;
15218;SDS011;15623;53.986;11.676;2023-08-06T17:29:09;2.40;;;2.10;;
15218;SDS011;15623;53.986;11.676;2023-08-06T17:31:50;2.80;;;1.70;;
15218;SDS011;15623;53.986;11.676;2023-08-06T17:34:18;3.10;;;2.30;;
15218;SDS011;15623;53.986;11.676;2023-08-06T17:36:47;1.80;;;1.70;;
15218;SDS011;15623;53.986;11.676;2023-08-06T17:39:14;3.05;;;2.10;;
15218;SDS011;15623;53.986;11.676;2023-08-06T17:41:42;7.15;;;2.10;;
15218;SDS011;15623;53.986;11.676;2023-08-06T17:44:12;4.55;;;1.95;;
15218;SDS011;15623;53.986;11.676;2023-08-06T17:46:39;2.47;;;2.22;;
15218;SDS011;15623;53.986;11.676;2023-08-06T17:49:08;3.55;;;2.20;;
15218;SDS011;15623;53.986;11.676;2023-08-06T17:51:35;3.83;;;2.30;;
15218;SDS011;15623;53.986;11.676;2023-08-06T17:54:05;4.18;;;2.33;;
15218;SDS011;15623;53.986;11.676;2023-08-06T17:56:34;3.00;;;2.30;;
15218;SDS011;15623;53.986;11.676;2023-08-06T17:59:01;2.90;;;2.40;;
15218;SDS011;15623;53.986;11.676;2023-08-06T18:01:29;3.22;;;2.33;;
15218;SDS011;15623;53.986;11.676;2023-08-06T18:03:57;2.70;;;2.00;;
15218;SDS011;15623;53.986;11.676;2023-08-06T18:06:24;2.80;;;1.85;;
15218;SDS011;15623;53.986;11.676;2023-08-06T18:08:51;3.75;;;2.25;;
15218;SDS011;15623;53.986;11.676;2023-08-06T18:11:21;2.33;;;2.17;;
15218;SDS011;15623;53.986;11.676;2023-08-06T18:13:48;3.47;;;2.20;;
15218;SDS011;15623;53.986;11.676;2023-08-06T18:16:16;2.78;;;2.53;;
15218;SDS011;15623;53.986;11.676;2023-08-06T18:18:45;3.58;;;2.50;;
15218;SDS011;15623;53.986;11.676;2023-08-06T18:21:13;2.55;;;2.33;;
15218;SDS011;15623;53.986;11.676;2023-08-06T18:23:54;2.65;;;2.17;;
15218;SDS011;15623;53.986;11.676;2023-08-06T18:41:08;2.67;;;2.20;;
15218;SDS011;15623;53.986;11.676;2023-08-06T18:43:49;2.67;;;2.47;;
15218;SDS011;15623;53.986;11.676;2023-08-06T18:46:31;3.13;;;2.28;;
15218;SDS011;15623;53.986;11.676;2023-08-06T18:49:14;3.58;;;2.45;;
15218;SDS011;15623;53.986;11.676;2023-08-06T18:51:59;3.78;;;2.42;;
15218;SDS011;15623;53.986;11.676;2023-08-06T18:54:40;2.22;;;2.13;;
15218;SDS011;15623;53.986;11.676;2023-08-06T19:00:22;4.60;;;2.40;;
15218;SDS011;15623;53.986;11.676;2023-08-06T19:03:03;3.53;;;2.42;;
15218;SDS011;15623;53.986;11.676;2023-08-06T19:05:31;2.70;;;2.50;;
15218;SDS011;15623;53.986;11.676;2023-08-06T19:08:00;4.72;;;2.30;;
15218;SDS011;15623;53.986;11.676;2023-08-06T19:10:28;3.22;;;2.40;;
15218;SDS011;15623;53.986;11.676;2023-08-06T19:12:57;2.63;;;2.28;;
15218;SDS011;15623;53.986;11.676;2023-08-06T19:15:26;2.50;;;2.30;;
15218;SDS011;15623;53.986;11.676;2023-08-06T19:17:54;2.45;;;2.25;;
15218;SDS011;15623;53.986;11.676;2023-08-06T19:20:23;3.75;;;2.78;;
15218;SDS011;15623;53.986;11.676;2023-08-06T19:22:51;3.45;;;2.35;;
15218;SDS011;15623;53.986;11.676;2023-08-06T19:25:24;3.55;;;2.30;;
15218;SDS011;15623;53.986;11.676;2023-08-06T19:27:59;2.90;;;2.50;;
15218;SDS011;15623;53.986;11.676;2023-08-06T19:30:49;4.47;;;2.75;;
15218;SDS011;15623;53.986;11.676;2023-08-06T19:39:30;3.30;;;2.38;;
15218;SDS011;15623;53.986;11.676;2023-08-06T19:42:21;5.82;;;2.60;;
15218;SDS011;15623;53.986;11.676;2023-08-06T19:45:03;3.13;;;2.50;;
15218;SDS011;15623;53.986;11.676;2023-08-06T19:47:38;2.50;;;2.30;;
15218;SDS011;15623;53.986;11.676;2023-08-06T19:50:25;3.83;;;2.50;;
15218;SDS011;15623;53.986;11.676;2023-08-06T19:53:07;2.72;;;2.20;;
15218;SDS011;15623;53.986;11.676;2023-08-06T19:55:48;2.50;;;2.30;;
15218;SDS011;15623;53.986;11.676;2023-08-06T19:58:16;5.82;;;2.50;;
15218;SDS011;15623;53.986;11.676;2023-08-06T20:00:43;3.80;;;2.70;;
15218;SDS011;15623;53.986;11.676;2023-08-06T20:03:15;2.78;;;2.50;;
15218;SDS011;15623;53.986;11.676;2023-08-06T20:05:42;3.45;;;2.40;;
15218;SDS011;15623;53.986;11.676;2023-08-06T20:11:15;3.15;;;2.40;;
15218;SDS011;15623;53.986;11.676;2023-08-06T20:14:20;2.67;;;2.47;;
15218;SDS011;15623;53.986;11.676;2023-08-06T20:16:48;2.63;;;2.42;;
15218;SDS011;15623;53.986;11.676;2023-08-06T20:19:17;2.80;;;2.60;;
15218;SDS011;15623;53.986;11.676;2023-08-06T20:21:45;2.65;;;2.55;;
15218;SDS011;15623;53.986;11.676;2023-08-06T20:24:13;2.83;;;2.63;;
15218;SDS011;15623;53.986;11.676;2023-08-06T20:26:42;4.47;;;3.15;;
15218;SDS011;15623;53.986;11.676;2023-08-06T20:29:12;5.07;;;3.03;;
15218;SDS011;15623;53.986;11.676;2023-08-06T20:31:44;10.68;;;3.30;;
15218;SDS011;15623;53.986;11.676;2023-08-06T20:34:16;5.80;;;3.40;;
15218;SDS011;15623;53.986;11.676;2023-08-06T20:36:48;5.22;;;3.63;;
15218;SDS011;15623;53.986;11.676;2023-08-06T20:39:16;5.10;;;3.60;;
15218;SDS011;15623;53.986;11.676;2023-08-06T20:41:44;8.73;;;4.10;;
15218;SDS011;15623;53.986;11.676;2023-08-06T20:44:13;6.07;;;3.45;;
15218;SDS011;15623;53.986;11.676;2023-08-06T20:46:41;6.22;;;3.60;;
15218;SDS011;15623;53.986;11.676;2023-08-06T20:49:11;4.57;;;3.67;;
15218;SDS011;15623;53.986;11.676;2023-08-06T20:51:39;5.90;;;3.80;;
15218;SDS011;15623;53.986;11.676;2023-08-06T20:54:13;6.60;;;3.75;;
15218;SDS011;15623;53.986;11.676;2023-08-06T20:56:41;5.05;;;3.40;;
15218;SDS011;15623;53.986;11.676;2023-08-06T20:59:09;3.72;;;3.40;;
15218;SDS011;15623;53.986;11.676;2023-08-06T21:01:36;4.18;;;3.83;;
15218;SDS011;15623;53.986;11.676;2023-08-06T21:04:04;3.90;;;3.50;;
15218;SDS011;15623;53.986;11.676;2023-08-06T21:06:35;3.42;;;3.13;;
15218;SDS011;15623;53.986;11.676;2023-08-06T21:09:02;6.57;;;3.88;;
15218;SDS011;15623;53.986;11.676;2023-08-06T21:11:33;4.85;;;3.70;;
15218;SDS011;15623;53.986;11.676;2023-08-06T21:14:00;4.68;;;4.00;;
15218;SDS011;15623;53.986;11.676;2023-08-06T21:16:28;5.53;;;3.70;;
15218;SDS011;15623;53.986;11.676;2023-08-06T21:18:56;7.47;;;3.80;;
15218;SDS011;15623;53.986;11.676;2023-08-06T21:21:24;4.63;;;3.65;;
15218;SDS011;15623;53.986;11.676;2023-08-06T21:23:51;4.90;;;3.75;;
15218;SDS011;15623;53.986;11.676;2023-08-06T21:26:19;5.50;;;3.85;;
15218;SDS011;15623;53.986;11.676;2023-08-06T21:28:48;5.22;;;3.60;;
15218;SDS011;15623;53.986;11.676;2023-08-06T21:31:16;3.97;;;3.47;;
15218;SDS011;15623;53.986;11.676;2023-08-06T21:33:43;5.82;;;3.80;;
15218;SDS011;15623;53.986;11.676;2023-08-06T21:55:13;5.80;;;3.47;;
15218;SDS011;15623;53.986;11.676;2023-08-06T21:57:54;6.20;;;3.28;;
15218;SDS011;15623;53.986;11.676;2023-08-06T22:00:22;4.32;;;3.40;;
15218;SDS011;15623;53.986;11.676;2023-08-06T22:02:50;6.70;;;3.72;;
15218;SDS011;15623;53.986;11.676;2023-08-06T22:05:18;3.95;;;3.55;;
15218;SDS011;15623;53.986;11.676;2023-08-06T22:07:50;3.72;;;3.40;;
15218;SDS011;15623;53.986;11.676;2023-08-06T22:10:21;5.75;;;3.72;;
15218;SDS011;15623;53.986;11.676;2023-08-06T22:13:00;4.35;;;3.65;;
15218;SDS011;15623;53.986;11.676;2023-08-06T22:15:28;4.20;;;3.80;;
15218;SDS011;15623;53.986;11.676;2023-08-06T22:17:55;5.55;;;3.33;;
15218;SDS011;15623;53.986;11.676;2023-08-06T22:23:25;5.68;;;3.50;;
15218;SDS011;15623;53.986;11.676;2023-08-06T23:45:11;7.85;;;4.47;;
15218;SDS011;15623;53.986;11.676;2023-08-06T23:47:39;6.07;;;3.67;;
15218;SDS011;15623;53.986;11.676;2023-08-06T23:50:07;8.57;;;4.40;;
15218;SDS011;15623;53.986;11.676;2023-08-06T23:55:36;5.15;;;3.90;;
15218;SDS011;15623;53.986;11.676;2023-08-06T23:58:07;10.35;;;4.32;;
